Time;durP1;ratioP1;P1;durP2;ratioP2;P2;SDS_P1;SDS_P2;PMS_P1;PMS_P2;Temp;Humidity;BMP_temperature;BMP_pressure;BME280_temperature;BME280_humidity;BME280_pressure;Samples;Min_cycle;Max_cycle;Signal;HPM_P1;HPM_P2
2024/03/02 00:00:29;;;;;;;7.40;4.60;;;;;;;11.08;100.00;101183.63;2081372;28;20181;-63
2024/03/02 00:01:29;;;;;;;7.07;4.80;;;;;;;11.12;100.00;101182.34;2081305;28;20687;-63
2024/03/02 00:02:30;;;;;;;10.53;4.77;;;;;;;11.16;100.00;101180.31;2081293;28;20567;-63
2024/03/02 00:03:30;;;;;;;9.60;4.40;;;;;;;11.16;100.00;101182.28;2081270;28;20701;-64
2024/03/02 00:04:31;;;;;;;7.23;4.20;;;;;;;11.17;100.00;101192.19;2081341;28;20288;-63
2024/03/02 00:05:31;;;;;;;7.57;4.43;;;;;;;11.04;100.00;101175.38;2081329;28;20671;-63
2024/03/02 00:06:32;;;;;;;7.20;4.70;;;;;;;11.18;100.00;101188.97;2081254;28;20716;-63
2024/03/02 00:07:33;;;;;;;8.17;4.47;;;;;;;11.17;100.00;101186.66;2088745;28;20658;-63
2024/03/02 00:08:34;;;;;;;8.77;4.47;;;;;;;11.14;100.00;101181.94;2088806;28;20200;-63
2024/03/02 00:09:35;;;;;;;8.60;5.03;;;;;;;11.09;100.00;101186.00;2081359;28;20478;-63
2024/03/02 00:10:41;;;;;;;7.00;4.27;;;;;;;11.02;100.00;101191.63;2081305;28;20311;-63
2024/03/02 00:11:41;;;;;;;10.90;4.57;;;;;;;10.97;100.00;101191.34;2081338;28;20416;-63
2024/03/02 00:12:42;;;;;;;8.20;4.60;;;;;;;10.50;100.00;101118.44;2081260;28;20460;-63
2024/03/02 00:13:43;;;;;;;6.30;4.27;;;;;;;10.96;100.00;101190.56;2081233;28;20220;-63
2024/03/02 00:14:43;;;;;;;6.97;4.47;;;;;;;10.97;100.00;101197.66;2081223;28;20666;-63
2024/03/02 00:15:50;;;;;;;7.97;4.80;;;;;;;10.97;100.00;101192.13;2081149;28;20615;-63
2024/03/02 00:16:53;;;;;;;8.20;4.20;;;;;;;10.99;100.00;101188.94;2078899;28;20181;-63
2024/03/02 00:17:54;;;;;;;7.10;4.40;;;;;;;10.26;100.00;101077.25;2077803;28;20498;-63
2024/03/02 00:18:55;;;;;;;7.73;4.47;;;;;;;10.94;100.00;101187.44;2081209;28;20420;-64
2024/03/02 00:19:55;;;;;;;6.10;3.67;;;;;;;10.94;100.00;101187.44;2079276;28;20944;-63
2024/03/02 00:20:57;;;;;;;8.80;4.77;;;;;;;10.90;100.00;101183.13;2077085;28;20651;-64
2024/03/02 00:22:01;;;;;;;10.87;4.33;;;;;;;10.90;100.00;101186.69;2082851;28;20181;-63
2024/03/02 00:23:10;;;;;;;7.20;4.33;;;;;;;11.01;100.00;101192.84;2082885;28;20427;-63
2024/03/02 00:24:34;;;;;;;6.63;4.10;;;;;;;11.02;100.00;101188.88;2082718;28;20830;-63
2024/03/02 00:25:42;;;;;;;7.17;4.57;;;;;;;10.94;100.00;101173.56;2082626;28;20411;-63
2024/03/02 00:27:03;;;;;;;9.37;4.83;;;;;;;10.99;100.00;101172.28;2082731;28;20408;-63
2024/03/02 00:28:07;;;;;;;9.17;4.67;;;;;;;11.03;100.00;101182.13;2078962;28;20445;-63
2024/03/02 00:29:13;;;;;;;6.97;4.27;;;;;;;11.12;100.00;101187.13;2082527;28;20463;-63
2024/03/02 00:30:42;;;;;;;6.73;4.67;;;;;;;11.11;100.00;101180.00;2082760;28;20427;-63
2024/03/02 00:31:42;;;;;;;10.40;4.67;;;;;;;10.93;100.00;101172.00;2082608;28;20810;-63
2024/03/02 00:32:43;;;;;;;7.87;4.60;;;;;;;10.82;100.00;101173.38;2082553;28;20423;-63
2024/03/02 00:33:46;;;;;;;10.13;4.70;;;;;;;10.22;100.00;101057.94;2082626;28;20229;-63
2024/03/02 00:34:46;;;;;;;7.37;3.87;;;;;;;10.98;100.00;101167.94;2082628;28;20216;-63
2024/03/02 00:35:48;;;;;;;6.40;4.10;;;;;;;11.04;100.00;101200.34;2082608;28;20424;-63
2024/03/02 00:36:48;;;;;;;11.80;4.47;;;;;;;11.07;100.00;101177.28;2082733;28;20177;-63
2024/03/02 00:37:49;;;;;;;6.93;4.43;;;;;;;11.06;100.00;101166.63;2082476;28;20471;-63
2024/03/02 00:38:53;;;;;;;5.37;3.83;;;;;;;11.05;100.00;101159.50;2082435;28;20268;-63
2024/03/02 00:39:53;;;;;;;10.33;4.90;;;;;;;11.10;100.00;101161.78;2082617;28;20181;-64
2024/03/02 00:40:54;;;;;;;7.17;4.50;;;;;;;10.90;100.00;101147.06;2082603;28;20428;-63
2024/03/02 00:41:55;;;;;;;8.73;4.53;;;;;;;11.07;100.00;101166.19;2082541;28;20570;-63
2024/03/02 00:42:56;;;;;;;6.17;4.03;;;;;;;11.06;100.00;101174.97;2082451;28;20189;-64
2024/03/02 00:44:01;;;;;;;8.67;4.47;;;;;;;11.02;100.00;101172.22;2082493;28;20185;-64
2024/03/02 00:45:08;;;;;;;6.67;4.70;;;;;;;11.06;100.00;101177.72;2082577;28;20473;-64
2024/03/02 00:46:10;;;;;;;6.83;4.30;;;;;;;10.97;100.00;101163.63;2082725;28;20412;-63
2024/03/02 00:47:11;;;;;;;6.90;4.00;;;;;;;10.90;100.00;101167.28;2082527;28;20835;-63
2024/03/02 00:48:18;;;;;;;8.57;4.57;;;;;;;10.82;100.00;101159.50;2082432;28;20451;-63
2024/03/02 00:49:21;;;;;;;6.77;3.93;;;;;;;10.87;100.00;101162.56;2082486;28;20701;-63
2024/03/02 00:50:21;;;;;;;9.43;4.33;;;;;;;10.86;100.00;101163.00;2082478;28;20435;-63
2024/03/02 00:51:24;;;;;;;8.30;4.40;;;;;;;10.85;100.00;101169.75;2082745;28;21047;-63
2024/03/02 00:52:24;;;;;;;6.70;3.80;;;;;;;10.81;100.00;101164.25;2082548;28;20181;-63
2024/03/02 00:53:26;;;;;;;7.57;4.33;;;;;;;10.80;100.00;101175.75;2082379;28;20933;-63
2024/03/02 00:54:28;;;;;;;6.60;4.20;;;;;;;10.72;100.00;101166.00;2082383;28;20184;-63
2024/03/02 00:55:29;;;;;;;8.33;4.00;;;;;;;10.70;100.00;101165.63;2082466;28;20481;-63
2024/03/02 00:56:30;;;;;;;6.43;4.33;;;;;;;10.70;100.00;101166.41;2082551;28;20522;-63
2024/03/02 00:57:34;;;;;;;6.67;3.73;;;;;;;10.70;100.00;101169.19;2082500;28;20190;-63
2024/03/02 00:58:34;;;;;;;7.13;3.97;;;;;;;10.64;100.00;101156.22;2082323;28;20424;-63
2024/03/02 00:59:35;;;;;;;7.40;4.73;;;;;;;10.58;100.00;101160.69;2082458;28;20458;-63
2024/03/02 01:00:35;;;;;;;10.13;4.63;;;;;;;10.59;100.00;101162.25;2082586;28;20243;-62
2024/03/02 01:01:36;;;;;;;10.83;4.37;;;;;;;10.68;100.00;101171.63;2082303;28;20184;-63
2024/03/02 01:02:36;;;;;;;5.83;3.87;;;;;;;10.64;100.00;101167.31;2082466;28;20181;-63
2024/03/02 01:03:37;;;;;;;9.90;4.30;;;;;;;10.65;100.00;101166.13;2082289;28;20223;-63
2024/03/02 01:04:37;;;;;;;7.13;4.20;;;;;;;10.66;100.00;101164.91;2082358;28;20188;-63
2024/03/02 01:05:47;;;;;;;8.97;4.33;;;;;;;10.59;100.00;101168.56;2082284;28;20219;-63
2024/03/02 01:06:48;;;;;;;7.10;4.00;;;;;;;10.59;100.00;101168.56;2082364;28;20717;-63
2024/03/02 01:07:49;;;;;;;7.40;4.03;;;;;;;10.56;100.00;101165.88;2082393;28;20801;-63
2024/03/02 01:08:51;;;;;;;8.23;4.40;;;;;;;10.53;100.00;101159.16;2089910;28;20713;-63
2024/03/02 01:09:51;;;;;;;7.90;4.30;;;;;;;10.53;100.00;101172.22;2089841;28;20272;-63
2024/03/02 01:10:52;;;;;;;7.33;4.43;;;;;;;10.43;100.00;101176.75;2082091;28;20430;-63
2024/03/02 01:11:52;;;;;;;9.93;4.60;;;;;;;10.25;100.00;101137.41;2082204;28;20189;-63
2024/03/02 01:12:53;;;;;;;8.43;4.40;;;;;;;10.33;100.00;101166.59;2082167;28;20323;-63
2024/03/02 01:13:54;;;;;;;7.60;3.87;;;;;;;10.39;100.00;101173.22;2082263;28;20216;-62
2024/03/02 01:14:54;;;;;;;8.80;4.13;;;;;;;10.38;100.00;101168.91;2082383;28;20183;-64
2024/03/02 01:15:55;;;;;;;7.30;3.67;;;;;;;10.46;100.00;101166.81;2082301;28;20173;-63
2024/03/02 01:16:56;;;;;;;7.67;4.37;;;;;;;10.53;100.00;101173.03;2082271;28;20177;-63
2024/03/02 01:17:57;;;;;;;8.07;4.20;;;;;;;9.88;100.00;101071.06;2082492;28;20487;-63
2024/03/02 01:18:57;;;;;;;9.40;4.27;;;;;;;10.50;100.00;101167.53;2082278;28;20173;-63
2024/03/02 01:19:58;;;;;;;7.53;4.43;;;;;;;10.48;100.00;101164.38;2079677;28;20462;-63
2024/03/02 01:20:58;;;;;;;12.67;4.53;;;;;;;10.41;100.00;101161.72;2082122;28;20181;-63
2024/03/02 01:21:59;;;;;;;6.20;4.47;;;;;;;9.70;100.00;101047.59;2082256;28;20642;-62
2024/03/02 01:22:59;;;;;;;9.47;4.03;;;;;;;10.51;100.00;101169.88;2080323;28;20210;-63
2024/03/02 01:24:00;;;;;;;8.17;4.27;;;;;;;10.58;100.00;101172.56;2074138;28;20699;-63
2024/03/02 01:25:01;;;;;;;7.53;4.50;;;;;;;10.69;100.00;101172.38;2074354;28;20178;-63
2024/03/02 01:26:02;;;;;;;5.57;3.77;;;;;;;10.71;100.00;101161.66;2074122;28;20177;-63
2024/03/02 01:27:03;;;;;;;8.43;4.40;;;;;;;10.76;100.00;101172.28;2075555;28;20918;-62
2024/03/02 01:28:04;;;;;;;7.43;3.63;;;;;;;10.78;100.00;101176.19;2082181;28;20631;-63
2024/03/02 01:29:05;;;;;;;9.10;4.20;;;;;;;10.84;100.00;101173.72;2082081;28;20197;-64
2024/03/02 01:30:06;;;;;;;10.10;4.37;;;;;;;10.84;100.00;101179.28;2082024;28;20881;-63
2024/03/02 01:31:07;;;;;;;6.00;3.80;;;;;;;10.83;100.00;101174.94;2082233;28;20173;-63
2024/03/02 01:32:07;;;;;;;9.63;4.07;;;;;;;10.85;100.00;101181.63;2081206;28;20942;-63
2024/03/02 01:33:08;;;;;;;8.97;4.57;;;;;;;10.90;100.00;101178.38;2082175;28;20235;-63
2024/03/02 01:34:08;;;;;;;8.63;4.07;;;;;;;10.67;100.00;101145.06;2082117;28;20205;-63
2024/03/02 01:35:09;;;;;;;7.27;3.57;;;;;;;10.83;100.00;101164.63;2082122;28;20287;-63
2024/03/02 01:36:09;;;;;;;6.37;3.93;;;;;;;10.88;100.00;101168.91;2082209;28;20540;-63
2024/03/02 01:37:10;;;;;;;6.03;3.47;;;;;;;10.78;100.00;101167.09;2082053;28;20181;-64
2024/03/02 01:38:10;;;;;;;6.50;3.93;;;;;;;10.79;100.00;101176.97;2082081;28;20237;-63
2024/03/02 01:39:11;;;;;;;7.17;4.00;;;;;;;10.60;100.00;101142.44;2082256;28;20181;-63
2024/03/02 01:40:12;;;;;;;5.63;3.77;;;;;;;10.77;100.00;101169.06;2082229;28;20173;-63
2024/03/02 01:41:12;;;;;;;9.67;4.63;;;;;;;10.84;100.00;101173.72;2082053;28;20618;-63
2024/03/02 01:42:13;;;;;;;6.60;4.03;;;;;;;10.68;100.00;101171.63;2082065;28;20328;-63
2024/03/02 01:43:13;;;;;;;8.00;3.60;;;;;;;10.70;100.00;101168.41;2082222;28;20668;-63
2024/03/02 01:44:14;;;;;;;7.83;3.80;;;;;;;10.65;100.00;101166.13;2082196;28;20255;-63
2024/03/02 01:45:15;;;;;;;5.87;3.73;;;;;;;10.66;100.00;101168.47;2081939;28;20189;-63
2024/03/02 01:46:15;;;;;;;7.77;4.20;;;;;;;10.60;100.00;101170.13;2081996;28;20200;-62
2024/03/02 01:47:16;;;;;;;8.00;4.50;;;;;;;10.64;100.00;101161.75;2080167;28;20559;-64
2024/03/02 01:48:16;;;;;;;9.80;3.80;;;;;;;10.60;100.00;101164.59;2074007;28;20178;-62
2024/03/02 01:49:17;;;;;;;7.97;4.20;;;;;;;10.61;100.00;101168.16;2081266;28;20189;-63
2024/03/02 01:50:34;;;;;;;8.50;3.90;;;;;;;10.71;100.00;101161.66;2082038;28;20189;-63
2024/03/02 01:51:34;;;;;;;7.40;3.37;;;;;;;10.75;100.00;101163.16;2082131;28;20168;-64
2024/03/02 01:52:35;;;;;;;7.80;3.97;;;;;;;10.79;100.00;101171.44;2082067;28;21012;-63
2024/03/02 01:53:36;;;;;;;6.10;3.53;;;;;;;10.79;100.00;101166.69;2082066;28;20633;-63
2024/03/02 01:54:36;;;;;;;7.47;3.83;;;;;;;10.80;100.00;101164.66;2082026;28;20315;-63
2024/03/02 01:55:37;;;;;;;4.47;3.30;;;;;;;10.78;100.00;101167.09;2081762;28;20424;-63
2024/03/02 01:56:37;;;;;;;5.47;3.40;;;;;;;10.82;100.00;101167.81;2081962;28;20562;-63
2024/03/02 01:57:38;;;;;;;6.50;3.87;;;;;;;10.80;100.00;101167.44;2082130;28;20183;-63
2024/03/02 01:58:39;;;;;;;5.63;3.33;;;;;;;10.80;100.00;101162.69;2081935;28;20188;-62
2024/03/02 01:59:39;;;;;;;5.50;3.53;;;;;;;10.83;100.00;101170.19;2081870;28;20685;-62
2024/03/02 02:00:40;;;;;;;7.13;4.20;;;;;;;10.83;100.00;101167.41;2081799;28;20181;-64
2024/03/02 02:01:40;;;;;;;6.83;3.90;;;;;;;10.88;100.00;101172.47;2081962;28;20232;-63
2024/03/02 02:02:41;;;;;;;7.70;3.73;;;;;;;10.88;100.00;101172.47;2082019;28;20185;-63
2024/03/02 02:03:43;;;;;;;6.87;3.70;;;;;;;10.89;100.00;101168.50;2081804;28;20181;-64
2024/03/02 02:04:44;;;;;;;9.60;4.00;;;;;;;10.88;100.00;101172.47;2081859;28;20288;-63
2024/03/02 02:05:45;;;;;;;6.63;3.77;;;;;;;10.90;100.00;101166.50;2079379;28;20443;-63
2024/03/02 02:06:46;;;;;;;6.40;3.57;;;;;;;10.91;100.00;101171.63;2081838;28;20177;-62
2024/03/02 02:07:47;;;;;;;7.10;3.93;;;;;;;10.94;100.00;101170.78;2089489;28;20513;-64
2024/03/02 02:08:47;;;;;;;8.53;3.97;;;;;;;10.99;100.00;101167.53;2089476;28;20271;-62
2024/03/02 02:09:48;;;;;;;7.83;4.00;;;;;;;10.96;100.00;101171.13;2081905;28;20184;-63
2024/03/02 02:10:49;;;;;;;4.63;3.50;;;;;;;10.96;100.00;101173.91;2081700;28;20196;-63
2024/03/02 02:11:50;;;;;;;6.00;3.63;;;;;;;10.95;100.00;101166.81;2081867;28;20260;-63
2024/03/02 02:12:51;;;;;;;6.23;3.83;;;;;;;10.96;100.00;101171.13;2082002;28;20638;-63
2024/03/02 02:13:51;;;;;;;9.00;4.03;;;;;;;10.94;100.00;101175.53;2081831;28;20784;-62
2024/03/02 02:14:52;;;;;;;4.97;3.30;;;;;;;10.95;100.00;101169.56;2081704;28;20189;-63
2024/03/02 02:15:53;;;;;;;7.57;4.40;;;;;;;10.93;100.00;101171.19;2081843;28;20654;-63
2024/03/02 02:16:53;;;;;;;7.13;3.57;;;;;;;10.80;100.00;101179.31;2081336;28;20628;-63
2024/03/02 02:17:55;;;;;;;7.20;3.70;;;;;;;9.75;100.00;101006.41;2081743;28;20238;-62
2024/03/02 02:18:55;;;;;;;9.67;4.03;;;;;;;10.70;100.00;101165.63;2081839;28;20184;-63
2024/03/02 02:19:56;;;;;;;7.27;3.90;;;;;;;10.69;100.00;101164.84;2081494;28;20432;-62
2024/03/02 02:20:56;;;;;;;4.37;3.13;;;;;;;10.70;100.00;101165.63;2081572;28;20205;-64
2024/03/02 02:21:57;;;;;;;6.27;3.87;;;;;;;10.74;100.00;101164.38;2089328;28;20215;-63
2024/03/02 02:23:09;;;;;;;6.50;3.73;;;;;;;10.76;100.00;101167.50;2089421;28;20585;-63
2024/03/02 02:24:10;;;;;;;9.17;3.70;;;;;;;10.74;100.00;101175.47;2081742;28;20203;-63
2024/03/02 02:25:10;;;;;;;9.10;4.20;;;;;;;10.72;100.00;101160.47;2079063;28;20470;-63
2024/03/02 02:26:11;;;;;;;6.80;3.33;;;;;;;10.67;100.00;101163.72;2081683;28;20670;-63
2024/03/02 02:27:14;;;;;;;6.50;3.63;;;;;;;10.59;100.00;101162.25;2081651;28;20677;-63
2024/03/02 02:28:15;;;;;;;6.07;3.33;;;;;;;10.50;100.00;101162.75;2081673;28;20204;-63
2024/03/02 02:29:15;;;;;;;5.73;3.57;;;;;;;10.50;100.00;101160.00;2081650;28;20467;-63
2024/03/02 02:30:21;;;;;;;8.53;3.63;;;;;;;10.49;100.00;101160.41;2081585;28;20188;-63
2024/03/02 02:31:22;;;;;;;7.17;3.93;;;;;;;10.44;100.00;101158.09;2081621;28;20660;-63
2024/03/02 02:32:22;;;;;;;5.77;3.33;;;;;;;10.35;100.00;101155.88;2081662;28;20875;-62
2024/03/02 02:33:22;;;;;;;7.33;3.87;;;;;;;10.32;100.00;101162.25;2081376;28;20193;-63
2024/03/02 02:34:23;;;;;;;6.77;3.50;;;;;;;10.37;100.00;101159.03;2081489;28;20185;-63
2024/03/02 02:35:24;;;;;;;8.20;3.57;;;;;;;10.32;100.00;101162.25;2081035;28;20181;-63
2024/03/02 02:36:24;;;;;;;7.37;4.10;;;;;;;10.22;100.00;101154.09;2081407;28;20239;-63
2024/03/02 02:37:25;;;;;;;12.13;4.00;;;;;;;10.23;100.00;101164.75;2078805;28;20477;-63
2024/03/02 02:38:26;;;;;;;6.63;3.97;;;;;;;10.19;100.00;101163.25;2081503;28;20189;-62
2024/03/02 02:39:26;;;;;;;8.03;3.57;;;;;;;10.14;100.00;101163.72;2081526;28;20635;-62
2024/03/02 02:40:30;;;;;;;8.77;3.80;;;;;;;9.36;100.00;101046.84;2081568;28;20234;-63
2024/03/02 02:41:30;;;;;;;7.90;3.53;;;;;;;10.12;100.00;101160.56;2078836;28;20192;-64
2024/03/02 02:42:31;;;;;;;10.53;4.57;;;;;;;10.02;100.00;101136.53;2080872;28;20466;-63
2024/03/02 02:43:31;;;;;;;7.70;4.13;;;;;;;10.17;100.00;101149.00;2081227;28;20226;-63
2024/03/02 02:44:32;;;;;;;5.60;3.60;;;;;;;9.42;100.00;101048.75;2081542;28;20180;-63
2024/03/02 02:45:32;;;;;;;6.90;3.70;;;;;;;10.19;100.00;101163.25;2081520;28;20318;-63
2024/03/02 02:46:33;;;;;;;9.37;4.20;;;;;;;9.84;100.00;101113.84;2080542;28;20195;-62
2024/03/02 02:47:35;;;;;;;10.60;3.70;;;;;;;10.13;100.00;101164.88;2081354;28;20192;-63
2024/03/02 02:48:36;;;;;;;8.37;3.93;;;;;;;10.13;100.00;101168.44;2081576;28;20275;-63
2024/03/02 02:49:36;;;;;;;5.97;3.60;;;;;;;9.53;100.00;101065.22;2081577;28;20435;-63
2024/03/02 02:50:36;;;;;;;8.57;3.60;;;;;;;10.18;100.00;101165.22;2081494;28;20200;-63
2024/03/02 02:51:37;;;;;;;7.03;3.77;;;;;;;9.82;100.00;101102.38;2081555;28;20215;-62
2024/03/02 02:52:40;;;;;;;7.83;3.97;;;;;;;10.11;100.00;101172.84;2081098;28;20189;-63
2024/03/02 02:53:40;;;;;;;6.70;3.60;;;;;;;10.11;100.00;101153.44;2080600;28;20192;-63
2024/03/02 02:54:41;;;;;;;9.00;3.77;;;;;;;10.06;100.00;101165.00;2081555;28;20462;-63
2024/03/02 02:55:43;;;;;;;7.87;3.30;;;;;;;9.97;100.00;101159.13;2081435;28;20200;-62
2024/03/02 02:56:43;;;;;;;6.67;3.87;;;;;;;9.85;100.00;101168.75;2081536;28;20211;-63
2024/03/02 02:57:45;;;;;;;7.13;3.57;;;;;;;9.81;100.00;101156.97;2081235;28;20502;-63
2024/03/02 02:58:46;;;;;;;9.27;3.53;;;;;;;9.78;100.00;101163.31;2081388;28;20180;-63
2024/03/02 02:59:46;;;;;;;9.30;3.60;;;;;;;9.52;100.00;101118.97;2081386;28;20440;-62
2024/03/02 03:00:47;;;;;;;13.13;4.47;;;;;;;9.86;100.00;101159.28;2081380;28;20512;-63
2024/03/02 03:01:47;;;;;;;6.27;3.40;;;;;;;9.82;100.00;101164.06;2081450;28;20184;-63
2024/03/02 03:02:49;;;;;;;7.67;3.60;;;;;;;9.76;100.00;101159.41;2081544;28;20629;-63
2024/03/02 03:03:49;;;;;;;6.10;3.60;;;;;;;9.69;100.00;101160.28;2081394;28;20274;-63
2024/03/02 03:04:50;;;;;;;6.80;3.63;;;;;;;9.61;100.00;101153.25;2081470;28;20477;-62
2024/03/02 03:05:50;;;;;;;7.00;3.50;;;;;;;9.54;100.00;101136.72;2081461;28;20191;-63
2024/03/02 03:06:51;;;;;;;6.37;3.73;;;;;;;9.75;100.00;101164.19;2081437;28;20208;-63
2024/03/02 03:07:51;;;;;;;6.07;3.27;;;;;;;9.81;100.00;101158.94;2081599;28;20202;-63
2024/03/02 03:08:52;;;;;;;7.00;3.87;;;;;;;9.79;100.00;101162.13;2081466;28;20290;-63
2024/03/02 03:09:53;;;;;;;7.00;3.53;;;;;;;9.77;100.00;101159.00;2081396;28;20186;-64
2024/03/02 03:10:53;;;;;;;5.67;3.53;;;;;;;9.81;100.00;101164.47;2081470;28;20191;-63
2024/03/02 03:11:54;;;;;;;4.53;3.00;;;;;;;9.85;100.00;101145.84;2081447;28;20195;-63
2024/03/02 03:12:56;;;;;;;5.40;3.57;;;;;;;9.81;100.00;101158.94;2081470;28;20196;-63
2024/03/02 03:13:56;;;;;;;10.27;3.73;;;;;;;9.81;100.00;101159.75;2081291;28;20206;-62
2024/03/02 03:14:57;;;;;;;7.17;3.50;;;;;;;9.78;100.00;101157.03;2081338;28;20506;-64
2024/03/02 03:15:57;;;;;;;8.47;3.90;;;;;;;9.71;100.00;101134.94;2088829;28;20670;-62
2024/03/02 03:16:58;;;;;;;4.67;3.37;;;;;;;9.80;100.00;101152.66;2088845;28;20274;-63
2024/03/02 03:17:58;;;;;;;6.37;3.53;;;;;;;9.83;100.00;101159.31;2076259;28;20183;-63
2024/03/02 03:18:59;;;;;;;7.00;3.67;;;;;;;9.74;100.00;101157.03;2081428;28;20216;-63
2024/03/02 03:20:00;;;;;;;5.47;3.17;;;;;;;9.73;100.00;101158.25;2081259;28;20184;-63
2024/03/02 03:21:01;;;;;;;5.37;3.53;;;;;;;9.79;100.00;101148.28;2081340;28;20776;-62
2024/03/02 03:22:01;;;;;;;6.67;3.43;;;;;;;9.45;100.00;101105.22;2081517;28;20440;-63
2024/03/02 03:23:03;;;;;;;7.33;3.27;;;;;;;9.78;100.00;101152.25;2081446;28;20264;-63
2024/03/02 03:24:04;;;;;;;7.23;3.60;;;;;;;9.71;100.00;101143.25;2081501;28;20200;-63
2024/03/02 03:25:05;;;;;;;7.10;3.47;;;;;;;9.72;100.00;101153.91;2081493;28;20419;-63
2024/03/02 03:26:06;;;;;;;6.07;3.83;;;;;;;9.74;100.00;101153.50;2081266;28;20216;-63
2024/03/02 03:27:06;;;;;;;7.47;4.07;;;;;;;9.75;100.00;101153.09;2081232;28;20184;-62
2024/03/02 03:28:09;;;;;;;6.90;3.90;;;;;;;9.70;100.00;101150.00;2081244;28;20579;-63
2024/03/02 03:29:10;;;;;;;10.47;3.67;;;;;;;9.62;100.00;101146.53;2081250;28;20736;-63
2024/03/02 03:30:11;;;;;;;5.70;3.00;;;;;;;9.70;100.00;101147.22;2081248;28;20789;-63
2024/03/02 03:31:11;;;;;;;5.70;3.27;;;;;;;9.62;100.00;101143.75;2081243;28;20649;-63
2024/03/02 03:32:12;;;;;;;6.83;3.27;;;;;;;9.73;100.00;101154.72;2081397;28;20188;-63
2024/03/02 03:33:13;;;;;;;7.83;3.17;;;;;;;9.73;100.00;101151.94;2080812;28;20183;-63
2024/03/02 03:34:15;;;;;;;7.40;3.67;;;;;;;9.45;100.00;101102.47;2081440;28;20184;-63
2024/03/02 03:35:16;;;;;;;5.93;3.07;;;;;;;9.68;100.00;101150.41;2079028;28;20453;-62
2024/03/02 03:36:16;;;;;;;5.73;3.37;;;;;;;9.69;100.00;101154.72;2078565;28;20435;-63
2024/03/02 03:37:17;;;;;;;8.20;3.17;;;;;;;9.21;100.00;101076.66;2081266;28;20623;-63
2024/03/02 03:38:17;;;;;;;4.77;2.90;;;;;;;9.50;100.00;101141.53;2081173;28;20698;-63
2024/03/02 03:39:18;;;;;;;6.07;3.43;;;;;;;9.60;100.00;101139.84;2081504;28;20179;-63
2024/03/02 03:40:19;;;;;;;6.23;3.43;;;;;;;9.67;100.00;101150.81;2081434;28;20184;-63
2024/03/02 03:41:22;;;;;;;7.10;3.80;;;;;;;9.67;100.00;101146.06;2080980;28;20201;-63
2024/03/02 03:42:23;;;;;;;4.87;3.63;;;;;;;9.70;100.00;101147.22;2081098;28;20464;-63
2024/03/02 03:43:23;;;;;;;6.53;3.50;;;;;;;9.73;100.00;101147.19;2080619;28;20201;-63
2024/03/02 03:44:24;;;;;;;6.77;3.50;;;;;;;8.61;100.00;100979.75;2080680;28;20670;-62
2024/03/02 03:45:25;;;;;;;5.07;3.30;;;;;;;8.96;100.00;101036.66;2074474;28;20264;-64
2024/03/02 03:46:26;;;;;;;7.43;3.47;;;;;;;9.62;100.00;101152.06;2081385;28;20628;-63
2024/03/02 03:47:26;;;;;;;7.87;3.53;;;;;;;9.54;100.00;101150.56;2081228;28;20428;-62
2024/03/02 03:48:30;;;;;;;6.00;3.20;;;;;;;9.49;100.00;101145.47;2080973;28;20176;-63
2024/03/02 03:49:30;;;;;;;9.73;4.00;;;;;;;9.49;100.00;101144.72;2081179;28;20191;-63
2024/03/02 03:50:31;;;;;;;6.33;3.47;;;;;;;9.37;100.00;101128.66;2081272;28;20434;-62
2024/03/02 03:51:31;;;;;;;10.17;3.90;;;;;;;9.45;100.00;101141.19;2081250;28;20184;-63
2024/03/02 03:52:32;;;;;;;5.73;3.03;;;;;;;9.47;100.00;101138.78;2081243;28;20184;-63
2024/03/02 03:53:33;;;;;;;4.53;2.70;;;;;;;9.57;100.00;101152.50;2081344;28;20184;-63
2024/03/02 03:54:33;;;;;;;7.83;3.33;;;;;;;9.63;100.00;101152.84;2081307;28;20647;-63
2024/03/02 03:55:34;;;;;;;8.43;3.50;;;;;;;9.60;100.00;101153.66;2082328;28;20180;-63
2024/03/02 03:56:34;;;;;;;3.90;2.80;;;;;;;9.58;100.00;101151.31;2080051;28;20215;-63
2024/03/02 03:57:35;;;;;;;3.73;2.63;;;;;;;9.58;100.00;101158.84;2082626;28;20211;-63
2024/03/02 03:58:35;;;;;;;6.73;3.00;;;;;;;9.59;100.00;101146.56;2082896;28;20246;-63
2024/03/02 03:59:37;;;;;;;7.47;3.13;;;;;;;9.59;100.00;101152.09;2081546;28;20201;-63
2024/03/02 04:00:37;;;;;;;5.10;3.30;;;;;;;9.53;100.00;101154.53;2082801;28;20237;-63
2024/03/02 04:01:38;;;;;;;5.33;2.73;;;;;;;9.50;100.00;101160.09;2083010;28;20413;-64
2024/03/02 04:02:39;;;;;;;5.37;3.10;;;;;;;9.54;100.00;101158.84;2082712;28;20188;-62
2024/03/02 04:03:39;;;;;;;5.13;3.03;;;;;;;9.55;100.00;101165.19;2082925;28;20188;-62
2024/03/02 04:04:39;;;;;;;4.60;3.07;;;;;;;9.41;100.00;101141.22;2082784;28;20255;-63
2024/03/02 04:05:40;;;;;;;3.83;2.53;;;;;;;9.52;100.00;101161.25;2082801;28;20192;-62
2024/03/02 04:06:41;;;;;;;6.37;3.43;;;;;;;9.51;100.00;101165.22;2082765;28;20192;-63
2024/03/02 04:07:42;;;;;;;5.13;3.07;;;;;;;9.50;100.00;101162.88;2082633;28;20395;-63
2024/03/02 04:08:43;;;;;;;5.03;2.90;;;;;;;8.89;100.00;101065.16;2080698;28;22128;-63
2024/03/02 04:09:43;;;;;;;7.50;3.07;;;;;;;9.53;100.00;101164.81;2082764;28;20928;-63
2024/03/02 04:10:44;;;;;;;5.03;3.13;;;;;;;9.23;100.00;101106.66;2082694;28;20192;-62
2024/03/02 04:11:44;;;;;;;4.90;3.13;;;;;;;9.57;100.00;101168.31;2080851;28;20188;-63
2024/03/02 04:12:46;;;;;;;6.47;3.20;;;;;;;9.59;100.00;101171.47;2082741;28;20246;-63
2024/03/02 04:13:46;;;;;;;5.77;3.07;;;;;;;9.60;100.00;101173.03;2082554;28;20192;-63
2024/03/02 04:14:47;;;;;;;7.57;3.13;;;;;;;9.66;100.00;101166.66;2082522;28;20521;-63
2024/03/02 04:15:47;;;;;;;8.47;2.90;;;;;;;9.57;100.00;101168.31;2082709;28;20238;-63
2024/03/02 04:16:48;;;;;;;3.53;2.37;;;;;;;9.56;100.00;101172.28;2082545;28;20181;-63
2024/03/02 04:17:48;;;;;;;5.43;2.93;;;;;;;9.60;100.00;101170.28;2081964;28;20573;-63
2024/03/02 04:18:49;;;;;;;4.30;2.27;;;;;;;9.03;100.00;101086.34;2082620;28;20705;-63
2024/03/02 04:19:49;;;;;;;4.47;2.83;;;;;;;9.57;100.00;101176.63;2082681;28;20187;-63
2024/03/02 04:20:50;;;;;;;8.07;2.90;;;;;;;9.52;100.00;101171.53;2082665;28;20185;-63
2024/03/02 04:21:50;;;;;;;7.13;3.33;;;;;;;9.56;100.00;101175.84;2082555;28;20426;-62
2024/03/02 04:22:51;;;;;;;6.63;2.77;;;;;;;9.53;100.00;101171.13;2082692;28;20188;-63
2024/03/02 04:23:51;;;;;;;5.27;2.90;;;;;;;9.55;100.00;101179.03;2090241;28;20576;-63
2024/03/02 04:24:52;;;;;;;5.13;2.30;;;;;;;9.41;100.00;101148.72;2090366;28;20184;-62
2024/03/02 04:25:53;;;;;;;6.90;2.67;;;;;;;9.39;100.00;101159.44;2082631;28;20208;-63
2024/03/02 04:26:53;;;;;;;5.90;2.57;;;;;;;9.50;100.00;101176.69;2074688;28;20483;-64
2024/03/02 04:27:54;;;;;;;4.20;2.33;;;;;;;9.49;100.00;101173.13;2080554;28;20215;-63
2024/03/02 04:28:54;;;;;;;7.87;2.93;;;;;;;8.78;100.00;101080.25;2082484;28;20315;-63
2024/03/02 04:29:55;;;;;;;5.30;2.63;;;;;;;9.37;100.00;101164.59;2082595;28;20177;-63
2024/03/02 04:30:55;;;;;;;9.07;2.63;;;;;;;9.39;100.00;101182.34;2082726;28;20181;-63
2024/03/02 04:31:56;;;;;;;5.30;2.53;;;;;;;9.32;100.00;101176.88;2082628;28;20184;-62
2024/03/02 04:32:56;;;;;;;6.13;2.50;;;;;;;9.35;100.00;101180.81;2082696;28;20638;-64
2024/03/02 04:33:57;;;;;;;5.43;3.23;;;;;;;9.37;100.00;101183.97;2090261;28;20180;-63
2024/03/02 04:34:58;;;;;;;5.13;2.73;;;;;;;9.43;100.00;101179.56;2090277;28;20255;-63
2024/03/02 04:35:58;;;;;;;3.77;2.47;;;;;;;9.46;100.00;101182.28;2082628;28;20662;-63
2024/03/02 04:36:59;;;;;;;5.53;2.50;;;;;;;9.55;100.00;101184.56;2082635;28;20172;-63
2024/03/02 04:38:01;;;;;;;5.83;2.87;;;;;;;9.62;100.00;101179.72;2082456;28;20237;-63
2024/03/02 04:39:01;;;;;;;10.00;2.83;;;;;;;9.58;100.00;101187.28;2082523;28;20196;-63
2024/03/02 04:40:02;;;;;;;4.70;2.53;;;;;;;9.56;100.00;101181.38;2082510;28;20439;-63
2024/03/02 04:41:04;;;;;;;5.40;2.80;;;;;;;9.53;100.00;101184.19;2082543;28;20177;-64
2024/03/02 04:42:04;;;;;;;4.90;2.83;;;;;;;9.60;100.00;101184.09;2076013;28;20188;-63
2024/03/02 04:43:05;;;;;;;6.00;2.60;;;;;;;9.62;100.00;101184.47;2082559;28;20425;-64